createdAt,value
2023-05-14T00:02:13.047Z,5.45
2023-05-14T00:04:42.752Z,5.55
2023-05-14T00:07:12.211Z,5.35
2023-05-14T00:09:41.668Z,5.25
2023-05-14T00:12:11.541Z,5.05
2023-05-14T00:14:41.008Z,5.40
2023-05-14T00:17:13.068Z,5.03
2023-05-14T00:19:42.989Z,5.18
2023-05-14T00:22:12.820Z,5.78
2023-05-14T00:24:42.320Z,5.80
2023-05-14T00:27:11.801Z,5.43
2023-05-14T00:29:42.710Z,5.50
2023-05-14T00:32:14.786Z,6.18
2023-05-14T00:34:44.310Z,5.90
2023-05-14T00:37:13.761Z,6.03
2023-05-14T00:39:43.264Z,6.10
2023-05-14T00:42:12.715Z,6.20
2023-05-14T00:44:42.273Z,7.03
2023-05-14T00:47:14.592Z,6.07
2023-05-14T00:49:45.142Z,6.53
2023-05-14T00:52:14.832Z,5.78
2023-05-14T00:54:44.748Z,6.60
2023-05-14T00:57:14.456Z,6.18
2023-05-14T00:59:43.965Z,6.00
2023-05-14T01:02:16.390Z,6.55
2023-05-14T01:04:46.032Z,5.88
2023-05-14T01:07:23.513Z,6.25
2023-05-14T01:09:57.651Z,6.47
2023-05-14T01:12:36.290Z,6.40
2023-05-14T01:15:12.071Z,6.67
2023-05-14T01:17:49.006Z,6.65
2023-05-14T01:20:19.109Z,6.47
2023-05-14T01:22:57.561Z,6.20
2023-05-14T01:25:27.163Z,6.43
2023-05-14T01:28:03.883Z,6.70
2023-05-14T01:30:36.930Z,6.57
2023-05-14T01:33:09.673Z,6.60
2023-05-14T01:38:15.119Z,6.27
2023-05-14T01:40:45.144Z,6.13
2023-05-14T01:43:14.748Z,6.50
2023-05-14T01:45:44.503Z,6.35
2023-05-14T01:48:13.989Z,6.00
2023-05-14T01:50:43.742Z,6.60
2023-05-14T01:53:15.856Z,6.13
2023-05-14T01:55:45.380Z,6.82
2023-05-14T01:58:14.829Z,5.93
2023-05-14T02:00:44.291Z,6.10
2023-05-14T02:03:14.093Z,5.90
2023-05-14T02:05:45.297Z,6.00
2023-05-14T02:08:17.545Z,5.37
2023-05-14T02:10:47.010Z,6.18
2023-05-14T02:16:08.572Z,6.10
2023-05-14T02:18:38.131Z,5.80
2023-05-14T02:21:07.780Z,5.70
2023-05-14T02:23:42.052Z,5.57
2023-05-14T02:26:12.488Z,5.43
2023-05-14T02:28:41.971Z,6.07
2023-05-14T02:31:11.499Z,5.20
2023-05-14T02:33:41.025Z,6.50
2023-05-14T02:36:10.810Z,5.43
2023-05-14T02:38:43.156Z,5.23
2023-05-14T02:41:12.613Z,5.95
2023-05-14T02:43:42.057Z,5.63
2023-05-14T02:46:11.605Z,5.70
2023-05-14T02:48:41.136Z,5.70
2023-05-14T02:51:10.643Z,6.03
2023-05-14T02:53:42.776Z,5.73
2023-05-14T02:56:12.288Z,6.72
2023-05-14T02:58:41.698Z,5.97
2023-05-14T03:01:11.524Z,5.83
2023-05-14T03:03:41.742Z,5.97
2023-05-14T03:06:12.187Z,5.57
2023-05-14T03:08:44.433Z,5.90
2023-05-14T03:11:13.867Z,5.28
2023-05-14T03:13:43.407Z,6.07
2023-05-14T03:16:13.605Z,6.03
2023-05-14T03:18:43.104Z,6.13
2023-05-14T03:21:12.669Z,5.70
2023-05-14T03:23:44.782Z,5.93
2023-05-14T03:26:14.288Z,5.40
2023-05-14T03:28:43.903Z,5.80
2023-05-14T03:31:13.459Z,6.67
2023-05-14T03:33:43.073Z,5.77
2023-05-14T03:36:12.597Z,6.37
2023-05-14T03:38:45.199Z,5.90
2023-05-14T03:41:14.680Z,5.88
2023-05-14T03:43:44.160Z,5.57
2023-05-14T03:46:13.640Z,5.33
2023-05-14T03:48:43.275Z,5.47
2023-05-14T03:51:12.809Z,6.03
2023-05-14T03:53:44.940Z,5.87
2023-05-14T03:56:16.186Z,5.60
2023-05-14T03:58:45.726Z,5.47
2023-05-14T04:01:15.170Z,5.27
2023-05-14T04:03:44.813Z,5.37
2023-05-14T04:06:15.612Z,5.63
2023-05-14T04:08:47.650Z,5.50
2023-05-14T04:11:17.152Z,4.85
2023-05-14T04:13:46.660Z,5.57
2023-05-14T04:16:16.194Z,5.67
2023-05-14T04:18:46.103Z,5.20
2023-05-14T04:21:15.716Z,5.73
2023-05-14T04:23:47.780Z,5.70
2023-05-14T04:26:17.255Z,5.35
2023-05-14T04:28:46.741Z,5.10
2023-05-14T04:31:16.412Z,5.10
2023-05-14T04:33:45.908Z,5.23
2023-05-14T04:36:16.166Z,5.50
2023-05-14T04:38:48.346Z,5.77
2023-05-14T04:41:17.784Z,5.50
2023-05-14T04:43:47.230Z,5.43
2023-05-14T04:46:16.752Z,5.10
2023-05-14T04:48:46.289Z,5.80
2023-05-14T04:51:15.735Z,5.63
2023-05-14T04:53:47.777Z,5.07
2023-05-14T04:56:17.223Z,5.88
2023-05-14T04:58:46.724Z,5.60
2023-05-14T05:01:16.346Z,5.20
2023-05-14T05:03:45.920Z,5.50
2023-05-14T05:06:15.510Z,4.80
2023-05-14T05:08:44.955Z,5.10
2023-05-14T05:11:17.006Z,5.00
2023-05-14T05:13:46.682Z,5.75
2023-05-14T05:16:16.223Z,4.83
2023-05-14T05:18:45.829Z,5.60
2023-05-14T05:21:15.511Z,5.73
2023-05-14T05:23:44.980Z,5.60
2023-05-14T05:26:17.028Z,5.97
2023-05-14T05:28:46.481Z,5.53
2023-05-14T05:31:19.564Z,5.00
2023-05-14T05:33:49.385Z,5.20
2023-05-14T05:36:18.813Z,5.20
2023-05-14T05:38:48.346Z,5.10
2023-05-14T05:41:20.656Z,5.63
2023-05-14T05:43:50.116Z,5.47
2023-05-14T05:46:19.651Z,5.47
2023-05-14T05:48:49.133Z,5.77
2023-05-14T05:51:18.658Z,5.37
2023-05-14T05:53:48.145Z,5.50
2023-05-14T05:56:20.248Z,5.23
2023-05-14T05:58:49.795Z,5.55
2023-05-14T06:01:19.287Z,5.20
2023-05-14T06:03:48.924Z,5.90
2023-05-14T06:06:18.536Z,5.20
2023-05-14T06:08:47.998Z,5.10
2023-05-14T06:11:20.036Z,5.60
2023-05-14T06:13:49.523Z,5.55
2023-05-14T06:16:19.017Z,5.03
2023-05-14T06:18:48.526Z,5.20
2023-05-14T06:21:18.066Z,5.83
2023-05-14T06:23:47.734Z,5.33
2023-05-14T06:26:19.814Z,5.60
2023-05-14T06:28:49.369Z,5.47
2023-05-14T06:31:18.868Z,5.13
2023-05-14T06:33:48.491Z,5.43
2023-05-14T06:36:17.932Z,5.20
2023-05-14T06:38:47.407Z,4.93
2023-05-14T06:41:16.922Z,5.23
2023-05-14T06:43:48.979Z,5.45
2023-05-14T06:46:18.486Z,5.32
2023-05-14T06:48:48.018Z,5.60
2023-05-14T06:51:17.599Z,4.65
2023-05-14T06:53:47.804Z,5.40
2023-05-14T06:56:17.477Z,5.05
2023-05-14T06:58:49.547Z,4.72
2023-05-14T07:01:19.324Z,5.03
2023-05-14T07:03:48.817Z,5.05
2023-05-14T07:06:18.314Z,4.70
2023-05-14T07:08:48.672Z,5.38
2023-05-14T07:11:18.318Z,4.90
2023-05-14T07:13:50.518Z,5.20
2023-05-14T07:16:20.106Z,5.15
2023-05-14T07:18:49.627Z,4.97
2023-05-14T07:21:19.138Z,4.75
2023-05-14T07:23:48.615Z,5.07
2023-05-14T07:26:18.157Z,4.75
2023-05-14T07:28:50.168Z,5.05
2023-05-14T07:31:19.663Z,4.22
2023-05-14T07:33:49.185Z,5.03
2023-05-14T07:36:18.759Z,4.97
2023-05-14T07:38:48.331Z,4.65
2023-05-14T07:41:17.859Z,4.43
2023-05-14T07:43:50.012Z,4.50
2023-05-14T07:46:19.433Z,5.25
2023-05-14T07:48:48.922Z,5.15
2023-05-14T07:51:18.437Z,4.50
2023-05-14T07:53:47.956Z,4.57
2023-05-14T07:56:17.401Z,4.80
2023-05-14T07:58:47.039Z,4.78
2023-05-14T08:01:19.726Z,5.47
2023-05-14T08:06:21.099Z,5.35
2023-05-14T08:08:50.604Z,4.93
2023-05-14T08:11:20.051Z,5.13
2023-05-14T08:13:49.576Z,4.78
2023-05-14T08:16:21.746Z,4.93
2023-05-14T08:18:51.373Z,4.75
2023-05-14T08:21:20.927Z,5.65
2023-05-14T08:23:51.068Z,4.68
2023-05-14T08:26:21.743Z,4.65
2023-05-14T08:28:51.246Z,4.65
2023-05-14T08:31:23.658Z,4.40
2023-05-14T08:36:22.692Z,5.05
2023-05-14T08:38:52.124Z,4.47
2023-05-14T08:41:21.945Z,4.30
2023-05-14T08:44:01.363Z,4.38
2023-05-14T08:46:34.697Z,3.75
2023-05-14T08:49:11.415Z,4.03
2023-05-14T08:51:41.483Z,4.45
2023-05-14T08:54:10.935Z,4.30
2023-05-14T08:56:43.326Z,4.15
2023-05-14T08:59:13.054Z,4.00
2023-05-14T09:01:49.277Z,4.00
2023-05-14T09:04:23.356Z,4.47
2023-05-14T09:06:55.223Z,4.30
2023-05-14T09:09:25.836Z,3.88
2023-05-14T09:11:56.306Z,4.00
2023-05-14T09:14:26.452Z,4.15
2023-05-14T09:16:58.559Z,4.38
2023-05-14T09:19:28.879Z,4.00
2023-05-14T09:22:00.788Z,4.60
2023-05-14T09:24:31.881Z,4.15
2023-05-14T09:27:01.576Z,4.10
2023-05-14T09:29:32.520Z,4.35
2023-05-14T09:32:05.672Z,4.70
2023-05-14T09:34:38.157Z,4.35
2023-05-14T09:37:08.880Z,4.22
2023-05-14T09:39:40.071Z,4.53
2023-05-14T09:42:09.893Z,4.22
2023-05-14T09:44:39.336Z,4.35
2023-05-14T09:47:11.497Z,4.93
2023-05-14T09:49:40.971Z,4.03
2023-05-14T09:52:10.422Z,4.80
2023-05-14T09:54:40.351Z,4.30
2023-05-14T09:57:10.037Z,4.50
2023-05-14T09:59:39.510Z,3.95
2023-05-14T10:02:18.987Z,4.10
2023-05-14T10:04:49.450Z,4.03
2023-05-14T10:07:22.164Z,3.90
2023-05-14T10:12:24.908Z,3.88
2023-05-14T10:14:59.322Z,4.22
2023-05-14T10:17:34.753Z,3.88
2023-05-14T10:20:08.399Z,4.40
2023-05-14T10:22:38.073Z,3.90
2023-05-14T10:25:08.840Z,3.88
2023-05-14T10:27:38.780Z,4.22
2023-05-14T10:30:13.085Z,4.30
2023-05-14T10:32:45.237Z,4.85
2023-05-14T10:35:25.526Z,4.43
2023-05-14T10:37:55.059Z,4.60
2023-05-14T10:40:27.179Z,4.90
2023-05-14T10:43:01.437Z,4.22
2023-05-14T10:45:30.892Z,4.65
2023-05-14T10:48:03.179Z,4.50
2023-05-14T10:50:32.928Z,4.68
2023-05-14T10:53:02.994Z,4.28
2023-05-14T10:55:33.237Z,4.53
2023-05-14T10:58:03.196Z,4.18
2023-05-14T11:00:36.022Z,4.50
2023-05-14T11:03:10.047Z,4.47
2023-05-14T11:05:42.358Z,4.57
2023-05-14T11:08:11.999Z,4.15
2023-05-14T11:10:42.392Z,4.70
2023-05-14T11:13:13.121Z,4.68
2023-05-14T11:15:47.231Z,4.40
2023-05-14T11:18:29.353Z,4.47
2023-05-14T11:21:01.652Z,4.63
2023-05-14T11:23:31.929Z,4.93
2023-05-14T11:26:01.762Z,4.40
2023-05-14T11:28:31.545Z,4.53
2023-05-14T11:31:01.145Z,5.30
2023-05-14T11:33:33.277Z,4.82
2023-05-14T11:36:02.746Z,4.53
2023-05-14T11:38:32.193Z,4.63
2023-05-14T11:41:04.476Z,4.75
2023-05-14T11:43:34.068Z,4.43
2023-05-14T11:46:03.578Z,4.82
2023-05-14T11:48:35.690Z,4.70
2023-05-14T11:51:05.102Z,4.75
2023-05-14T11:53:34.837Z,4.88
2023-05-14T11:56:05.666Z,5.05
2023-05-14T11:58:36.848Z,4.85
2023-05-14T12:01:06.500Z,4.53
2023-05-14T12:03:38.848Z,4.35
2023-05-14T12:06:10.057Z,4.30
2023-05-14T12:08:40.065Z,4.38
2023-05-14T12:11:09.544Z,4.30
2023-05-14T12:13:39.481Z,4.80
2023-05-14T12:16:09.364Z,4.30
2023-05-14T12:18:41.556Z,4.28
2023-05-14T12:21:12.220Z,4.60
2023-05-14T12:23:42.065Z,4.68
2023-05-14T12:26:12.113Z,4.10
2023-05-14T12:28:43.785Z,4.65
2023-05-14T12:31:13.416Z,4.45
2023-05-14T12:33:46.042Z,4.80
2023-05-14T12:38:52.146Z,4.13
2023-05-14T12:41:21.868Z,4.35
2023-05-14T12:43:51.884Z,3.88
2023-05-14T12:46:21.543Z,4.60
2023-05-14T12:48:53.708Z,3.90
2023-05-14T12:51:23.265Z,3.83
2023-05-14T12:53:54.322Z,3.83
2023-05-14T12:56:28.331Z,3.50
2023-05-14T12:58:58.774Z,3.97
2023-05-14T13:01:28.292Z,3.75
2023-05-14T13:04:00.356Z,3.50
2023-05-14T13:06:32.791Z,3.30
2023-05-14T13:09:02.627Z,3.30
2023-05-14T13:11:32.374Z,3.40
2023-05-14T13:14:02.396Z,3.38
2023-05-14T13:16:32.297Z,4.20
2023-05-14T13:19:04.376Z,3.88
2023-05-14T13:21:34.085Z,3.30
2023-05-14T13:24:03.528Z,3.88
2023-05-14T13:26:33.024Z,3.70
2023-05-14T13:29:02.442Z,3.75
2023-05-14T13:31:32.039Z,3.72
2023-05-14T13:34:04.375Z,3.65
2023-05-14T13:36:34.020Z,3.53
2023-05-14T13:39:04.562Z,3.70
2023-05-14T13:41:35.692Z,4.25
2023-05-14T13:44:05.138Z,3.88
2023-05-14T13:46:35.021Z,3.80
2023-05-14T13:49:07.140Z,3.75
2023-05-14T13:51:36.539Z,3.58
2023-05-14T13:54:06.236Z,3.80
2023-05-14T13:56:35.721Z,3.85
2023-05-14T13:59:05.184Z,3.78
2023-05-14T14:01:34.740Z,3.80
2023-05-14T14:04:06.888Z,3.40
2023-05-14T14:06:36.351Z,3.70
2023-05-14T14:09:06.160Z,3.67
2023-05-14T14:11:35.722Z,4.10
2023-05-14T14:14:07.213Z,4.35
2023-05-14T14:16:36.818Z,4.05
2023-05-14T14:19:09.383Z,3.97
2023-05-14T14:24:09.967Z,4.00
2023-05-14T14:26:39.418Z,3.90
2023-05-14T14:29:08.946Z,3.63
2023-05-14T14:31:39.541Z,3.60
2023-05-14T14:34:15.804Z,4.00
2023-05-14T14:36:45.468Z,3.70
2023-05-14T14:39:14.943Z,3.70
2023-05-14T14:41:44.532Z,3.58
2023-05-14T14:44:14.070Z,3.63
2023-05-14T14:46:44.201Z,3.50
2023-05-14T14:49:16.244Z,3.35
2023-05-14T14:51:47.052Z,3.60
2023-05-14T14:54:16.483Z,3.28
2023-05-14T14:56:46.091Z,3.30
2023-05-14T14:59:15.556Z,3.30
2023-05-14T15:01:45.140Z,3.47
2023-05-14T15:04:17.229Z,3.80
2023-05-14T15:06:46.720Z,3.53
2023-05-14T15:09:16.315Z,3.40
2023-05-14T15:11:45.800Z,3.33
2023-05-14T15:14:15.348Z,2.90
2023-05-14T15:16:44.991Z,2.80
2023-05-14T15:19:17.320Z,2.97
2023-05-14T15:21:47.006Z,3.13
2023-05-14T15:24:16.453Z,3.10
2023-05-14T15:26:45.981Z,3.15
2023-05-14T15:29:15.545Z,3.00
2023-05-14T15:31:45.203Z,3.50
2023-05-14T15:34:17.327Z,3.42
2023-05-14T15:36:46.782Z,3.53
2023-05-14T15:39:16.260Z,3.50
2023-05-14T15:41:45.761Z,3.58
2023-05-14T15:44:15.263Z,3.80
2023-05-14T15:46:44.886Z,3.90
2023-05-14T15:49:17.036Z,3.63
2023-05-14T15:51:46.502Z,3.75
2023-05-14T15:54:16.054Z,3.75
2023-05-14T15:56:46.543Z,4.10
2023-05-14T15:59:17.725Z,3.72
2023-05-14T16:01:47.411Z,3.83
2023-05-14T16:04:19.456Z,3.63
2023-05-14T16:06:48.900Z,3.40
2023-05-14T16:09:18.479Z,3.40
2023-05-14T16:11:48.076Z,3.65
2023-05-14T16:14:18.609Z,3.40
2023-05-14T16:16:48.302Z,4.00
2023-05-14T16:19:20.614Z,3.92
2023-05-14T16:21:50.185Z,3.40
2023-05-14T16:24:20.309Z,4.05
2023-05-14T16:26:50.093Z,3.70
2023-05-14T16:29:19.653Z,3.80
2023-05-14T16:31:49.225Z,3.70
2023-05-14T16:34:21.300Z,3.97
2023-05-14T16:36:51.097Z,3.47
2023-05-14T16:39:20.528Z,3.67
2023-05-14T16:41:50.010Z,3.80
2023-05-14T16:44:19.533Z,3.50
2023-05-14T16:46:49.026Z,3.92
2023-05-14T16:49:22.555Z,3.88
2023-05-14T16:51:52.077Z,3.60
2023-05-14T16:54:21.781Z,3.28
2023-05-14T16:56:51.587Z,3.38
2023-05-14T16:59:21.098Z,3.40
2023-05-14T17:01:50.862Z,3.75
2023-05-14T17:04:25.060Z,3.65
2023-05-14T17:06:54.673Z,3.67
2023-05-14T17:09:24.149Z,3.15
2023-05-14T17:11:53.639Z,3.50
2023-05-14T17:14:23.139Z,3.47
2023-05-14T17:16:52.665Z,4.18
2023-05-14T17:19:24.840Z,3.75
2023-05-14T17:21:54.230Z,3.75
2023-05-14T17:24:23.631Z,3.60
2023-05-14T17:26:53.151Z,3.83
2023-05-14T17:29:23.076Z,3.92
2023-05-14T17:31:52.748Z,3.72
2023-05-14T17:34:24.900Z,4.03
2023-05-14T17:36:54.543Z,4.43
2023-05-14T17:39:24.117Z,4.15
2023-05-14T17:41:53.551Z,4.07
2023-05-14T17:44:23.007Z,4.50
2023-05-14T17:46:52.564Z,4.50
2023-05-14T17:49:24.730Z,3.83
2023-05-14T17:51:54.375Z,3.92
2023-05-14T17:54:23.817Z,4.30
2023-05-14T17:56:53.626Z,4.05
2023-05-14T17:59:24.415Z,4.15
2023-05-14T18:01:54.048Z,4.15
2023-05-14T18:04:26.091Z,4.03
2023-05-14T18:06:55.629Z,4.20
2023-05-14T18:09:25.133Z,4.35
2023-05-14T18:11:56.770Z,4.22
2023-05-14T18:14:26.533Z,4.20
2023-05-14T18:16:56.610Z,4.07
2023-05-14T18:19:28.698Z,4.22
2023-05-14T18:21:58.196Z,4.00
2023-05-14T18:24:27.969Z,4.32
2023-05-14T18:26:57.549Z,4.60
2023-05-14T18:29:27.112Z,4.40
2023-05-14T18:31:56.527Z,4.20
2023-05-14T18:34:28.595Z,4.30
2023-05-14T18:36:58.584Z,4.55
2023-05-14T18:39:28.251Z,4.65
2023-05-14T18:41:57.845Z,4.55
2023-05-14T18:44:27.285Z,4.45
2023-05-14T18:46:59.451Z,4.60
2023-05-14T18:49:31.485Z,4.88
2023-05-14T18:52:01.024Z,4.63
2023-05-14T18:54:30.630Z,5.03
2023-05-14T18:57:00.163Z,4.97
2023-05-14T18:59:29.636Z,4.75
2023-05-14T19:01:59.156Z,4.60
2023-05-14T19:04:33.300Z,4.75
2023-05-14T19:07:03.130Z,4.70
2023-05-14T19:09:32.614Z,4.68
2023-05-14T19:12:02.039Z,4.68
2023-05-14T19:14:31.580Z,5.13
2023-05-14T19:17:06.108Z,5.00
2023-05-14T19:19:39.448Z,5.05
2023-05-14T19:22:09.565Z,4.80
2023-05-14T19:24:40.238Z,4.65
2023-05-14T19:27:10.169Z,4.95
2023-05-14T19:29:39.724Z,5.10
2023-05-14T19:32:10.353Z,5.00
2023-05-14T19:34:42.392Z,5.13
2023-05-14T19:37:11.892Z,4.97
2023-05-14T19:39:41.362Z,4.82
2023-05-14T19:42:11.011Z,5.00
2023-05-14T19:44:40.471Z,4.80
2023-05-14T19:47:10.467Z,4.88
2023-05-14T19:49:42.652Z,5.10
2023-05-14T19:52:12.217Z,4.63
2023-05-14T19:54:41.668Z,4.80
2023-05-14T19:57:12.068Z,4.78
2023-05-14T19:59:41.991Z,5.25
2023-05-14T20:02:12.590Z,4.90
2023-05-14T20:04:46.216Z,5.35
2023-05-14T20:07:16.571Z,5.18
2023-05-14T20:09:46.763Z,5.68
2023-05-14T20:12:16.913Z,5.47
2023-05-14T20:14:46.421Z,5.20
2023-05-14T20:17:16.404Z,5.53
2023-05-14T20:19:48.612Z,6.03
2023-05-14T20:22:18.297Z,6.03
2023-05-14T20:24:47.749Z,5.28
2023-05-14T20:27:17.224Z,5.93
2023-05-14T20:29:46.861Z,6.00
2023-05-14T20:32:17.376Z,5.00
2023-05-14T20:34:49.629Z,5.93
2023-05-14T20:37:19.904Z,5.50
2023-05-14T20:39:49.728Z,5.38
2023-05-14T20:42:19.276Z,5.03
2023-05-14T20:44:48.846Z,5.53
2023-05-14T20:47:24.407Z,5.30
2023-05-14T20:49:56.524Z,5.82
2023-05-14T20:52:26.104Z,6.38
2023-05-14T20:54:55.813Z,5.88
2023-05-14T20:57:25.782Z,5.60
2023-05-14T20:59:55.251Z,5.97
2023-05-14T21:02:24.856Z,5.65
2023-05-14T21:04:57.224Z,5.45
2023-05-14T21:07:28.292Z,6.10
2023-05-14T21:09:58.413Z,5.72
2023-05-14T21:12:27.937Z,5.13
2023-05-14T21:14:57.401Z,5.95
2023-05-14T21:17:26.949Z,5.57
2023-05-14T21:19:59.147Z,5.30
2023-05-14T21:22:29.801Z,5.50
2023-05-14T21:24:59.345Z,5.55
2023-05-14T21:27:29.129Z,5.80
2023-05-14T21:29:58.574Z,6.05
2023-05-14T21:32:28.062Z,6.20
2023-05-14T21:35:00.247Z,6.05
2023-05-14T21:37:29.904Z,5.90
2023-05-14T21:39:59.413Z,5.65
2023-05-14T21:42:28.889Z,5.68
2023-05-14T21:44:58.409Z,5.65
2023-05-14T21:47:28.043Z,6.68
2023-05-14T21:50:00.338Z,5.95
2023-05-14T21:52:29.805Z,5.68
2023-05-14T21:54:59.307Z,5.78
2023-05-14T21:57:31.879Z,6.10
2023-05-14T22:00:03.721Z,5.93
2023-05-14T22:02:34.142Z,5.97
2023-05-14T22:05:06.621Z,5.80
2023-05-14T22:07:36.185Z,6.20
2023-05-14T22:10:05.798Z,5.65
2023-05-14T22:12:35.309Z,5.85
2023-05-14T22:15:05.253Z,6.82
2023-05-14T22:17:34.986Z,6.32
2023-05-14T22:20:10.250Z,5.80
2023-05-14T22:22:39.808Z,6.35
2023-05-14T22:25:10.190Z,6.38
2023-05-14T22:27:39.742Z,5.90
2023-05-14T22:30:11.131Z,5.95
2023-05-14T22:32:40.773Z,5.93
2023-05-14T22:35:13.119Z,6.25
2023-05-14T22:37:42.634Z,6.18
2023-05-14T22:40:13.690Z,6.47
2023-05-14T22:42:43.201Z,6.45
2023-05-14T22:45:13.378Z,6.30
2023-05-14T22:47:43.431Z,6.88
2023-05-14T22:50:15.695Z,6.38
2023-05-14T22:52:45.186Z,6.85
2023-05-14T22:55:14.691Z,6.95
2023-05-14T22:57:44.219Z,6.72
2023-05-14T23:00:15.629Z,6.35
2023-05-14T23:02:45.256Z,6.85
2023-05-14T23:05:17.531Z,7.07
2023-05-14T23:07:47.156Z,7.03
2023-05-14T23:10:16.632Z,6.95
2023-05-14T23:12:46.102Z,6.32
2023-05-14T23:15:15.560Z,6.63
2023-05-14T23:17:45.279Z,7.03
2023-05-14T23:20:17.469Z,6.30
2023-05-14T23:22:47.008Z,7.40
2023-05-14T23:25:16.465Z,6.63
2023-05-14T23:27:46.042Z,7.45
2023-05-14T23:30:16.328Z,6.85
2023-05-14T23:32:45.819Z,8.35
2023-05-14T23:35:18.138Z,7.35
2023-05-14T23:37:49.633Z,7.47
2023-05-14T23:40:19.690Z,9.73
2023-05-14T23:42:49.589Z,8.65
2023-05-14T23:45:19.172Z,8.05
2023-05-14T23:47:48.757Z,7.97
2023-05-14T23:50:21.069Z,8.32
2023-05-14T23:52:50.615Z,8.52
2023-05-14T23:55:20.183Z,8.50
2023-05-14T23:57:50.089Z,7.45
